Time;durP1;ratioP1;P1;durP2;ratioP2;P2;SDS_P1;SDS_P2;PMS_P1;PMS_P2;Temp;Humidity;BMP_temperature;BMP_pressure;BME280_temperature;BME280_humidity;BME280_pressure;Samples;Min_cycle;Max_cycle;Signal;HPM_P1;HPM_P2
2022/02/04 00:22:42;;;;;;;3.45;2.88;;;4.00;99.90;;;;;;5075892;28;20043;-74
2022/02/04 00:25:26;;;;;;;4.20;2.72;;;3.90;99.90;;;;;;5092046;28;20123;-74
2022/02/04 00:28:04;;;;;;;3.03;2.58;;;3.90;99.90;;;;;;5094714;28;20054;-75
2022/02/04 00:30:36;;;;;;;4.45;3.03;;;3.80;99.90;;;;;;5073054;28;20048;-74
2022/02/04 00:33:10;;;;;;;5.57;3.42;;;3.80;99.90;;;;;;5073622;28;20067;-74
2022/02/04 00:38:23;;;;;;;5.20;4.70;;;3.60;99.90;;;;;;5093056;28;20098;-74
2022/02/04 00:40:54;;;;;;;6.68;5.43;;;3.60;99.90;;;;;;5091412;28;20138;-74
2022/02/04 00:43:26;;;;;;;6.22;5.05;;;3.50;99.90;;;;;;5074571;28;20097;-74
2022/02/04 00:46:10;;;;;;;5.75;3.65;;;3.50;99.90;;;;;;5075840;28;20055;-74
2022/02/04 00:51:18;;;;;;;5.07;3.85;;;3.40;99.90;;;;;;5092708;28;20135;-74
2022/02/04 01:13:24;;;;;;;11.13;6.53;;;3.40;99.90;;;;;;5091924;28;20506;-75
2022/02/04 01:27:01;;;;;;;10.82;7.10;;;3.60;99.90;;;;;;5091837;28;20048;-74
2022/02/04 01:29:41;;;;;;;10.95;7.45;;;3.60;99.90;;;;;;5072998;28;20098;-74
2022/02/04 01:32:13;;;;;;;10.20;6.97;;;3.60;99.90;;;;;;5092020;28;20078;-74
2022/02/04 01:34:45;;;;;;;10.15;7.10;;;3.60;99.90;;;;;;5073806;28;20398;-74
2022/02/04 01:37:17;;;;;;;10.43;6.47;;;3.60;99.90;;;;;;5074899;28;20050;-74
2022/02/04 01:39:49;;;;;;;9.45;6.82;;;3.50;99.90;;;;;;5057514;28;20126;-74
2022/02/04 01:42:21;;;;;;;11.75;7.75;;;3.50;99.90;;;;;;5072978;28;20050;-74
2022/02/04 01:44:48;;;;;;;11.15;7.07;;;3.40;99.90;;;;;;5073506;28;20094;-74
2022/02/04 01:47:14;;;;;;;10.23;6.93;;;3.40;99.90;;;;;;5073757;28;20068;-74
2022/02/04 01:49:46;;;;;;;8.95;6.72;;;3.40;99.90;;;;;;5091864;28;20058;-74
2022/02/04 01:52:13;;;;;;;8.75;6.10;;;3.40;99.90;;;;;;5091507;28;20083;-74
2022/02/04 01:54:40;;;;;;;9.88;6.25;;;3.30;99.90;;;;;;5072929;28;20052;-74
2022/02/04 01:57:07;;;;;;;11.07;7.43;;;3.30;99.90;;;;;;5091678;28;20115;-74
2022/02/04 01:59:38;;;;;;;9.50;6.10;;;3.20;99.90;;;;;;5091140;28;20131;-74
2022/02/04 02:02:07;;;;;;;12.02;7.18;;;3.10;99.90;;;;;;5090673;28;20042;-75
2022/02/04 02:04:39;;;;;;;9.60;6.95;;;3.10;99.90;;;;;;5089464;28;20035;-74
2022/02/04 02:07:11;;;;;;;10.23;5.60;;;3.00;99.90;;;;;;5089602;28;20043;-74
2022/02/04 02:10:09;;;;;;;10.43;6.30;;;3.00;99.90;;;;;;5089963;28;20044;-74
2022/02/04 02:12:48;;;;;;;;;;;2.70;99.90;;;;;;5072714;28;20058;-74
2022/02/04 02:15:31;;;;;;;10.65;6.25;;;2.60;99.90;;;;;;5090098;28;20457;-74
2022/02/04 02:51:04;;;;;;;12.98;7.72;;;2.10;99.90;;;;;;5097723;28;20402;-74
2022/02/04 02:58:57;;;;;;;16.38;8.95;;;2.10;99.90;;;;;;5079453;28;20058;-73
2022/02/04 03:01:29;;;;;;;15.32;9.02;;;2.20;99.90;;;;;;5097771;28;20505;-74
2022/02/04 03:04:06;;;;;;;19.60;10.75;;;2.20;99.90;;;;;;5079309;28;20439;-74
2022/02/04 03:06:39;;;;;;;17.40;10.00;;;2.20;99.90;;;;;;5097626;28;20115;-74
2022/02/04 03:09:12;;;;;;;16.40;10.15;;;2.20;99.90;;;;;;5097499;28;20046;-74
2022/02/04 03:11:39;;;;;;;14.95;9.85;;;2.30;99.90;;;;;;5096116;28;20056;-74
2022/02/04 03:14:11;;;;;;;18.02;10.27;;;2.20;99.90;;;;;;5079776;28;20039;-73
2022/02/04 03:16:45;;;;;;;21.42;12.38;;;2.20;99.90;;;;;;5096458;28;20056;-74
2022/02/04 03:19:12;;;;;;;20.70;12.02;;;2.30;99.90;;;;;;5079139;28;20043;-74
2022/02/04 03:21:46;;;;;;;21.17;13.70;;;2.30;99.90;;;;;;5063473;28;20040;-74
2022/02/04 03:24:21;;;;;;;22.55;12.48;;;2.30;99.90;;;;;;5079579;28;20032;-74
2022/02/04 03:26:59;;;;;;;18.67;11.48;;;2.40;99.90;;;;;;5079318;28;20044;-74
2022/02/04 03:29:41;;;;;;;16.40;10.45;;;2.40;99.90;;;;;;5096270;28;20040;-74
2022/02/04 03:32:17;;;;;;;15.70;9.93;;;2.40;99.90;;;;;;5095334;28;20111;-74
2022/02/04 03:34:49;;;;;;;16.92;9.80;;;2.40;99.90;;;;;;5097109;28;20048;-74
2022/02/04 03:37:21;;;;;;;18.30;10.52;;;2.30;99.90;;;;;;5096369;28;20567;-74
2022/02/04 03:39:53;;;;;;;17.02;10.48;;;2.20;99.90;;;;;;5080144;28;20141;-74
2022/02/04 03:42:19;;;;;;;17.48;10.50;;;2.20;99.90;;;;;;5078911;28;20138;-74
2022/02/04 03:44:51;;;;;;;20.27;11.82;;;2.10;99.90;;;;;;5097416;28;20094;-74
2022/02/04 03:47:23;;;;;;;26.17;12.98;;;2.10;99.90;;;;;;5079102;28;20117;-74
2022/02/04 03:49:55;;;;;;;27.80;12.52;;;2.20;99.90;;;;;;5079040;28;20050;-74
2022/02/04 03:52:26;;;;;;;24.95;13.68;;;2.30;99.90;;;;;;5092754;28;20062;-74
2022/02/04 03:54:58;;;;;;;27.65;13.95;;;2.30;99.90;;;;;;5076832;28;20044;-74
2022/02/04 03:57:25;;;;;;;26.95;14.20;;;2.40;99.90;;;;;;5075842;28;20062;-74
2022/02/04 03:59:53;;;;;;;22.52;13.98;;;2.50;99.90;;;;;;5075641;28;20050;-74
2022/02/04 04:02:20;;;;;;;22.98;13.43;;;2.50;99.90;;;;;;5058982;28;20542;-74
2022/02/04 04:04:52;;;;;;;25.27;14.52;;;2.60;99.90;;;;;;5075747;28;20130;-74
2022/02/04 04:07:18;;;;;;;24.35;14.50;;;2.70;99.90;;;;;;5092562;28;20121;-74
2022/02/04 04:09:57;;;;;;;25.80;14.70;;;2.70;99.90;;;;;;5093819;28;20143;-74
2022/02/04 04:12:29;;;;;;;25.77;15.02;;;2.80;99.90;;;;;;5074940;28;20052;-74
2022/02/04 04:14:57;;;;;;;26.15;14.52;;;2.80;99.90;;;;;;5071813;28;20051;-74
2022/02/04 04:17:37;;;;;;;24.40;13.40;;;2.90;99.90;;;;;;5072131;28;20388;-74
2022/02/04 04:20:11;;;;;;;27.33;14.70;;;2.90;99.90;;;;;;5081660;28;20406;-74
2022/02/04 04:22:43;;;;;;;24.25;12.98;;;3.00;99.90;;;;;;5091754;28;20044;-74
2022/02/04 04:25:16;;;;;;;23.52;13.90;;;3.00;99.90;;;;;;5093473;28;20036;-74
2022/02/04 04:27:49;;;;;;;27.23;14.93;;;3.10;99.90;;;;;;5076228;28;20032;-74
2022/02/04 04:30:17;;;;;;;24.13;14.27;;;3.20;99.90;;;;;;5093228;28;20573;-74
2022/02/04 04:32:45;;;;;;;22.83;13.40;;;3.20;99.90;;;;;;5074774;28;20039;-74
2022/02/04 04:35:19;;;;;;;23.45;13.85;;;3.30;99.90;;;;;;5075890;28;20052;-74
2022/02/04 05:28:58;;;;;;;20.33;11.50;;;2.80;99.90;;;;;;5090176;28;20482;-73
2022/02/04 05:31:08;;;;;;;19.90;10.85;;;2.80;99.90;;;;;;5079261;28;20074;-73
2022/02/04 05:33:34;;;;;;;18.27;11.07;;;2.80;99.90;;;;;;5072680;28;20044;-72
2022/02/04 05:36:08;;;;;;;20.65;11.45;;;2.80;99.90;;;;;;5075219;28;20459;-73
2022/02/04 05:38:41;;;;;;;;;;;2.80;99.90;;;;;;5091396;28;20086;-73
2022/02/04 05:41:19;;;;;;;17.20;10.85;;;2.70;99.90;;;;;;5090007;28;19924;-73
2022/02/04 05:43:52;;;;;;;19.05;10.65;;;2.80;99.90;;;;;;5073267;28;20036;-73
2022/02/04 05:46:25;;;;;;;19.02;10.63;;;2.80;99.90;;;;;;5092121;28;20142;-72
2022/02/04 05:48:58;;;;;;;15.93;10.63;;;2.90;99.90;;;;;;5088468;28;20633;-73
2022/02/04 05:51:40;;;;;;;14.98;9.32;;;3.00;99.90;;;;;;5066389;28;20032;-73
2022/02/04 05:54:20;;;;;;;14.95;9.88;;;3.00;99.90;;;;;;5068616;28;20437;-73
2022/02/04 05:57:13;;;;;;;16.48;10.15;;;3.10;99.90;;;;;;5078037;28;20070;-72
2022/02/04 06:02:57;;;;;;;12.15;9.23;;;3.20;99.90;;;;;;5088109;28;20040;-73
2022/02/04 06:24:40;;;;;;;14.13;9.55;;;3.50;99.90;;;;;;5081037;28;20470;-73
2022/02/04 06:27:12;;;;;;;14.65;9.73;;;3.50;99.90;;;;;;5087888;28;20032;-73
2022/02/04 06:29:39;;;;;;;19.55;10.32;;;3.50;99.90;;;;;;5105497;28;20579;-73
2022/02/04 06:32:14;;;;;;;17.15;9.82;;;3.50;99.90;;;;;;5090039;28;20123;-73
2022/02/04 06:34:47;;;;;;;17.05;10.88;;;3.60;99.90;;;;;;5056560;28;20036;-72
2022/02/04 06:37:14;;;;;;;17.48;10.88;;;3.60;99.90;;;;;;5071488;28;20072;-74
2022/02/04 06:39:46;;;;;;;15.75;9.80;;;3.60;99.90;;;;;;5080724;28;20028;-73
2022/02/04 06:42:26;;;;;;;19.42;11.48;;;3.60;99.90;;;;;;5064122;28;20131;-72
2022/02/04 06:44:59;;;;;;;17.17;10.65;;;3.60;99.90;;;;;;5084504;28;20048;-74
2022/02/04 06:47:28;;;;;;;18.05;10.25;;;3.60;99.90;;;;;;5063851;28;20041;-73
2022/02/04 06:49:55;;;;;;;16.95;10.50;;;3.60;99.90;;;;;;5081563;28;20542;-74
2022/02/04 06:52:21;;;;;;;14.60;10.48;;;3.60;99.90;;;;;;5073078;28;20134;-73
2022/02/04 06:54:53;;;;;;;19.80;11.32;;;3.60;99.90;;;;;;5094884;28;20028;-74
2022/02/04 06:57:25;;;;;;;19.10;12.88;;;3.70;99.90;;;;;;5092798;28;20414;-73
2022/02/04 06:59:58;;;;;;;17.98;11.50;;;3.70;99.90;;;;;;5075734;28;20044;-73
2022/02/04 07:02:30;;;;;;;20.30;12.18;;;3.70;99.90;;;;;;5056039;28;20036;-73
2022/02/04 07:04:56;;;;;;;19.75;11.88;;;3.70;99.90;;;;;;5072574;28;20070;-74
2022/02/04 07:07:33;;;;;;;18.65;12.48;;;3.80;99.90;;;;;;5071768;28;20458;-74
2022/02/04 07:10:14;;;;;;;17.13;11.35;;;3.80;99.90;;;;;;5072026;28;20126;-74
2022/02/04 07:13:05;;;;;;;18.67;10.65;;;3.80;99.90;;;;;;5090087;28;20043;-73
2022/02/04 07:20:59;;;;;;;19.55;11.60;;;3.90;99.90;;;;;;5069307;28;20036;-74
2022/02/04 07:23:31;;;;;;;18.27;11.38;;;3.90;99.90;;;;;;5072266;28;20135;-74
2022/02/04 07:26:04;;;;;;;17.98;11.80;;;3.90;99.90;;;;;;5070234;28;20036;-73
2022/02/04 07:28:36;;;;;;;17.80;11.60;;;4.00;99.90;;;;;;5076362;28;20449;-72
2022/02/04 07:31:08;;;;;;;15.98;10.43;;;3.90;99.90;;;;;;5093566;28;20039;-74
2022/02/04 07:33:47;;;;;;;15.48;10.32;;;4.00;99.90;;;;;;5093516;28;20036;-73
2022/02/04 07:41:50;;;;;;;16.85;11.07;;;4.10;99.90;;;;;;5075784;28;20036;-73
2022/02/04 07:44:23;;;;;;;16.67;10.85;;;4.10;99.90;;;;;;5092650;28;20032;-73
2022/02/04 07:46:54;;;;;;;15.48;10.18;;;4.10;99.90;;;;;;5071923;28;20454;-74
2022/02/04 07:49:27;;;;;;;14.57;9.57;;;4.20;99.90;;;;;;5062774;28;20042;-73
2022/02/04 07:51:59;;;;;;;12.98;8.95;;;4.20;99.90;;;;;;5070446;28;20044;-74
2022/02/04 07:54:26;;;;;;;15.68;9.73;;;4.20;99.90;;;;;;5075013;28;20036;-73
2022/02/04 07:56:57;;;;;;;13.65;9.68;;;4.30;99.90;;;;;;5098477;28;20525;-74
2022/02/04 07:59:24;;;;;;;14.07;9.95;;;4.30;99.90;;;;;;5090075;28;20046;-74
2022/02/04 08:01:56;;;;;;;13.05;9.48;;;4.40;99.90;;;;;;5085891;28;20050;-74
2022/02/04 08:04:31;;;;;;;11.77;9.00;;;4.40;99.90;;;;;;5049871;28;20049;-74
2022/02/04 08:07:08;;;;;;;12.68;8.57;;;4.40;99.90;;;;;;5055011;28;20128;-75
2022/02/04 08:31:38;;;;;;;17.10;9.80;;;4.70;99.90;;;;;;5067185;28;20071;-74
2022/02/04 08:54:09;;;;;;;15.18;10.50;;;5.00;99.90;;;;;;5073466;28;20062;-73
2022/02/04 08:56:43;;;;;;;13.52;10.25;;;5.00;99.90;;;;;;5074224;28;20159;-74
2022/02/04 08:59:18;;;;;;;14.05;10.07;;;5.00;99.90;;;;;;5091102;28;20479;-73
2022/02/04 09:01:59;;;;;;;16.02;11.15;;;5.00;99.90;;;;;;5092181;28;20558;-74
2022/02/04 09:07:25;;;;;;;14.38;9.82;;;5.00;99.90;;;;;;5079029;28;20047;-72
2022/02/04 09:10:08;;;;;;;14.77;10.73;;;5.00;99.90;;;;;;5089498;28;20150;-74
2022/02/04 09:23:27;;;;;;;13.10;9.05;;;5.30;99.90;;;;;;5091850;28;20032;-71
2022/02/04 09:25:55;;;;;;;16.10;10.38;;;5.40;99.90;;;;;;5090516;28;20047;-74
2022/02/04 09:28:22;;;;;;;14.27;8.77;;;5.40;99.90;;;;;;5074088;28;20047;-72
2022/02/04 09:30:54;;;;;;;12.93;8.88;;;5.40;99.90;;;;;;5089930;28;20054;-74
2022/02/04 09:33:21;;;;;;;13.75;9.38;;;5.50;99.90;;;;;;5073341;28;20119;-74
2022/02/04 09:35:47;;;;;;;12.95;9.60;;;5.60;99.90;;;;;;5091976;28;20046;-72
2022/02/04 09:38:19;;;;;;;13.45;9.07;;;5.60;99.90;;;;;;5090950;28;20076;-73
2022/02/04 09:40:51;;;;;;;12.00;8.95;;;5.60;99.90;;;;;;5088956;28;20044;-74
2022/02/04 09:43:18;;;;;;;11.60;8.27;;;5.70;99.90;;;;;;5060952;28;20054;-74
2022/02/04 09:45:45;;;;;;;13.13;8.88;;;5.70;99.90;;;;;;5084717;28;20040;-74
2022/02/04 09:48:17;;;;;;;13.38;7.97;;;5.70;99.90;;;;;;5090391;28;20501;-74
2022/02/04 09:50:52;;;;;;;13.57;9.23;;;5.70;99.90;;;;;;5074141;28;20082;-74
2022/02/04 10:07:56;;;;;;;12.27;7.53;;;5.80;99.90;;;;;;5073687;28;20040;-73
2022/02/04 10:14:10;;;;;;;14.27;8.15;;;5.90;99.90;;;;;;5091567;28;20078;-74
2022/02/04 10:16:36;;;;;;;9.77;7.18;;;5.90;99.90;;;;;;5065948;28;20511;-74
2022/02/04 10:19:23;;;;;;;11.25;6.93;;;5.90;99.90;;;;;;5091230;28;20131;-74
2022/02/04 10:21:59;;;;;;;10.43;7.45;;;5.90;99.90;;;;;;5086074;28;20047;-73
2022/02/04 10:24:33;;;;;;;10.63;7.05;;;5.90;99.90;;;;;;5080994;28;20135;-74
2022/02/04 10:27:07;;;;;;;;;;;5.90;99.90;;;;;;5071826;28;20503;-74
2022/02/04 10:29:42;;;;;;;9.38;6.78;;;5.90;99.90;;;;;;5074920;28;19927;-74
2022/02/04 10:32:14;;;;;;;9.18;6.70;;;5.80;99.90;;;;;;5089402;28;20040;-74
2022/02/04 10:35:03;;;;;;;11.45;7.28;;;5.80;99.90;;;;;;5088218;28;20506;-73
2022/02/04 10:37:40;;;;;;;9.80;6.55;;;5.90;99.90;;;;;;5091210;28;20048;-74
2022/02/04 10:40:59;;;;;;;8.68;5.88;;;5.90;99.90;;;;;;5089535;28;20499;-74
2022/02/04 10:52:34;;;;;;;8.50;5.90;;;5.90;99.90;;;;;;5089098;28;20143;-73
2022/02/04 10:58:16;;;;;;;8.77;5.32;;;6.00;99.90;;;;;;5088189;28;20050;-74
2022/02/04 11:01:09;;;;;;;6.75;4.95;;;6.00;99.90;;;;;;5091389;28;20043;-74
2022/02/04 11:03:54;;;;;;;12.27;4.60;;;6.00;99.90;;;;;;5094544;28;20048;-73
2022/02/04 11:32:52;;;;;;;8.43;3.83;;;6.30;99.90;;;;;;5091185;28;20043;-73
2022/02/04 11:55:21;;;;;;;6.85;4.78;;;6.00;99.90;;;;;;5079985;28;20139;-74
2022/02/04 11:57:56;;;;;;;7.60;5.18;;;6.10;99.90;;;;;;5091587;28;20045;-74
2022/02/04 12:00:38;;;;;;;9.55;6.28;;;6.00;99.90;;;;;;5074655;28;20437;-74
2022/02/04 12:03:31;;;;;;;10.80;6.57;;;6.00;99.90;;;;;;5072879;28;20055;-73
2022/02/04 12:06:04;;;;;;;11.55;7.47;;;6.00;99.90;;;;;;5083799;28;20135;-74
2022/02/04 12:08:36;;;;;;;9.40;6.50;;;6.00;99.90;;;;;;5074734;28;20040;-73
2022/02/04 12:11:11;;;;;;;9.45;6.57;;;6.00;99.90;;;;;;5081764;28;20286;-73
2022/02/04 12:14:10;;;;;;;12.52;6.53;;;6.10;99.90;;;;;;5088723;28;20071;-74
2022/02/04 12:17:00;;;;;;;9.80;6.15;;;6.10;99.90;;;;;;5079071;28;20125;-74
2022/02/04 12:19:38;;;;;;;9.07;6.28;;;6.10;99.90;;;;;;5093866;28;20048;-74
2022/02/04 12:22:06;;;;;;;10.30;6.47;;;6.10;99.90;;;;;;5091378;28;20127;-74
2022/02/04 12:24:41;;;;;;;9.27;6.82;;;6.20;99.90;;;;;;5091729;28;20066;-73
2022/02/04 12:27:31;;;;;;;10.32;6.07;;;6.30;99.90;;;;;;5073939;28;20036;-74
2022/02/04 12:30:35;;;;;;;9.10;6.22;;;6.30;99.90;;;;;;5072137;28;20044;-73
2022/02/04 12:33:07;;;;;;;8.48;6.35;;;6.30;99.90;;;;;;5066775;28;20410;-74
2022/02/04 12:35:35;;;;;;;9.27;6.07;;;6.30;99.90;;;;;;5075282;28;20491;-73
2022/02/04 12:38:03;;;;;;;9.27;6.25;;;6.30;99.90;;;;;;5086471;28;20044;-74
2022/02/04 12:40:35;;;;;;;9.18;5.88;;;6.30;99.90;;;;;;5079212;28;20052;-74
2022/02/04 12:43:07;;;;;;;8.90;5.63;;;6.20;99.90;;;;;;5066052;28;20047;-74
2022/02/04 12:45:38;;;;;;;8.75;5.50;;;6.20;99.90;;;;;;5078040;28;20068;-74
2022/02/04 12:48:11;;;;;;;7.90;5.35;;;6.20;99.90;;;;;;5081953;28;20131;-74
2022/02/04 12:50:44;;;;;;;10.73;6.30;;;6.20;99.90;;;;;;5066403;28;20507;-74
2022/02/04 12:53:25;;;;;;;22.23;8.93;;;6.20;99.90;;;;;;5088715;28;20087;-74
2022/02/04 12:56:34;;;;;;;7.90;5.53;;;6.30;99.90;;;;;;5090227;28;20058;-73
2022/02/04 12:59:24;;;;;;;9.10;5.03;;;6.20;99.90;;;;;;5066001;28;20518;-73
2022/02/04 13:07:31;;;;;;;30.90;10.73;;;6.30;99.90;;;;;;5073511;28;20055;-74
2022/02/04 13:10:03;;;;;;;9.15;5.13;;;6.30;99.90;;;;;;5087972;28;20036;-73
2022/02/04 13:12:30;;;;;;;7.60;5.07;;;6.30;99.90;;;;;;5091104;28;20039;-74
2022/02/04 13:15:10;;;;;;;17.92;7.88;;;6.30;99.90;;;;;;5091133;28;20039;-74
2022/02/04 13:17:37;;;;;;;8.32;6.05;;;6.30;99.90;;;;;;5091582;28;20058;-74
2022/02/04 13:20:05;;;;;;;8.93;5.28;;;6.30;99.90;;;;;;5072004;28;20052;-74
2022/02/04 13:22:32;;;;;;;6.80;4.25;;;6.30;99.90;;;;;;5089860;28;20036;-74
2022/02/04 13:25:16;;;;;;;7.85;4.80;;;6.30;99.90;;;;;;5091427;28;20055;-73
2022/02/04 13:28:03;;;;;;;6.80;4.53;;;6.40;99.90;;;;;;5091587;28;20048;-74
2022/02/04 13:30:37;;;;;;;7.90;4.38;;;6.40;99.90;;;;;;5087765;28;20039;-73
2022/02/04 13:33:18;;;;;;;11.75;5.65;;;6.40;99.90;;;;;;5064600;28;20048;-74
2022/02/04 13:36:11;;;;;;;7.82;4.90;;;6.40;99.90;;;;;;5069802;28;20040;-74
2022/02/04 13:41:34;;;;;;;5.85;4.38;;;6.30;99.90;;;;;;5089397;28;20048;-73
2022/02/04 13:50:20;;;;;;;6.35;4.07;;;6.20;99.90;;;;;;5088924;28;20032;-73
2022/02/04 14:01:27;;;;;;;8.23;5.10;;;6.30;99.90;;;;;;5070720;28;20234;-74
2022/02/04 14:04:02;;;;;;;6.68;4.32;;;6.30;99.90;;;;;;5072580;28;20044;-73
2022/02/04 14:06:35;;;;;;;6.28;4.45;;;6.30;99.90;;;;;;5089038;28;20046;-74
2022/02/04 14:09:17;;;;;;;5.53;3.75;;;6.30;99.90;;;;;;5088142;28;20040;-74
2022/02/04 14:11:44;;;;;;;6.90;3.90;;;6.30;99.90;;;;;;5071834;28;20067;-73
2022/02/04 14:14:25;;;;;;;5.00;3.15;;;6.30;99.90;;;;;;5089375;28;20398;-74
2022/02/04 14:17:01;;;;;;;5.35;3.55;;;6.30;99.90;;;;;;5090034;28;20075;-73
2022/02/04 14:19:33;;;;;;;5.65;3.20;;;6.30;99.90;;;;;;5090043;28;20058;-73
2022/02/04 14:22:07;;;;;;;4.80;3.50;;;6.30;99.90;;;;;;5089812;28;20042;-73
2022/02/04 14:24:34;;;;;;;6.40;3.45;;;6.30;99.90;;;;;;5090836;28;20048;-73
2022/02/04 14:27:01;;;;;;;4.38;3.20;;;6.30;99.90;;;;;;5073055;28;20036;-73
2022/02/04 14:29:43;;;;;;;4.57;3.17;;;6.40;99.90;;;;;;5091160;28;20039;-73
2022/02/04 14:32:24;;;;;;;4.88;3.38;;;6.40;99.90;;;;;;5076559;28;20048;-73
2022/02/04 14:35:04;;;;;;;5.43;3.50;;;6.40;99.90;;;;;;5075692;28;20750;-74
2022/02/04 14:52:20;;;;;;;4.57;2.72;;;6.50;99.90;;;;;;5089959;28;20042;-73
2022/02/04 14:58:35;;;;;;;5.43;2.65;;;6.60;99.90;;;;;;5080738;28;20040;-73
2022/02/04 15:05:46;;;;;;;13.77;6.45;;;6.40;99.90;;;;;;5089927;28;20044;-74
2022/02/04 15:08:17;;;;;;;14.07;7.10;;;6.30;99.90;;;;;;5071651;28;20054;-73
2022/02/04 15:10:49;;;;;;;9.50;5.90;;;6.30;99.90;;;;;;5088212;28;20086;-73
2022/02/04 15:13:17;;;;;;;7.20;4.97;;;6.30;99.90;;;;;;5089461;28;20498;-73
2022/02/04 15:15:44;;;;;;;4.35;3.17;;;6.20;99.90;;;;;;5071852;28;20048;-73
2022/02/04 15:18:16;;;;;;;3.92;2.90;;;6.20;99.90;;;;;;5071961;28;20143;-73
2022/02/04 15:20:43;;;;;;;3.60;2.83;;;6.10;99.90;;;;;;5090060;28;20137;-73
2022/02/04 15:23:16;;;;;;;4.35;2.92;;;6.10;99.90;;;;;;5071530;28;20145;-73
2022/02/04 15:25:43;;;;;;;4.50;3.40;;;6.10;99.90;;;;;;5089947;28;20071;-73
2022/02/04 15:28:30;;;;;;;6.85;4.05;;;6.10;99.90;;;;;;5071841;28;20131;-74
2022/02/04 15:31:05;;;;;;;5.40;3.53;;;6.10;99.90;;;;;;5089955;28;20683;-74
2022/02/04 15:33:37;;;;;;;3.63;2.55;;;6.10;99.90;;;;;;5088199;28;20044;-73
2022/02/04 15:36:06;;;;;;;4.30;3.22;;;6.00;99.90;;;;;;5071842;28;20134;-73
2022/02/04 15:38:39;;;;;;;3.78;2.60;;;5.90;99.90;;;;;;5055912;28;20044;-73
2022/02/04 15:41:14;;;;;;;5.28;3.83;;;5.90;99.90;;;;;;5071839;28;20518;-73
2022/02/04 15:43:52;;;;;;;3.95;2.97;;;5.90;99.90;;;;;;5070590;28;20044;-74
2022/02/04 16:05:44;;;;;;;5.03;3.58;;;5.80;99.90;;;;;;5074753;28;20552;-73
2022/02/04 16:08:18;;;;;;;5.20;3.28;;;5.80;99.90;;;;;;5091821;28;20434;-73
2022/02/04 16:10:55;;;;;;;4.53;2.80;;;5.80;99.90;;;;;;5075717;28;20032;-73
2022/02/04 16:13:41;;;;;;;4.38;3.00;;;5.70;99.90;;;;;;5092665;28;20128;-72
2022/02/04 16:19:09;;;;;;;5.68;2.75;;;5.70;99.90;;;;;;5091660;28;20589;-74
2022/02/04 16:26:59;;;;;;;4.40;2.95;;;5.60;99.90;;;;;;5092913;28;20028;-74
2022/02/04 16:29:30;;;;;;;5.07;3.20;;;5.60;99.90;;;;;;5066671;28;20467;-73
2022/02/04 16:32:07;;;;;;;5.30;4.20;;;5.50;99.90;;;;;;5059025;28;20037;-74
2022/02/04 16:34:34;;;;;;;3.40;2.58;;;5.50;99.90;;;;;;5053937;28;20518;-73
2022/02/04 16:37:17;;;;;;;5.20;3.63;;;5.50;99.90;;;;;;5072726;28;20044;-73
2022/02/04 16:39:49;;;;;;;5.88;3.22;;;5.50;99.90;;;;;;5071345;28;20041;-73
2022/02/04 16:42:27;;;;;;;3.47;2.40;;;5.50;99.90;;;;;;5070477;28;20055;-76
2022/02/04 16:44:55;;;;;;;3.40;2.70;;;5.50;99.90;;;;;;5093284;28;20105;-73
2022/02/04 16:47:23;;;;;;;4.97;2.38;;;5.60;99.90;;;;;;5072873;28;20043;-77
2022/02/04 16:49:50;;;;;;;3.00;1.95;;;5.60;99.90;;;;;;5088476;28;20048;-73
2022/02/04 16:52:20;;;;;;;3.42;2.20;;;5.50;99.90;;;;;;5071952;28;20074;-72
2022/02/04 16:54:52;;;;;;;2.70;2.00;;;5.50;99.90;;;;;;5092196;28;20055;-72
2022/02/04 16:57:25;;;;;;;2.60;1.70;;;5.50;99.90;;;;;;5090326;28;20414;-72
2022/02/04 16:59:56;;;;;;;2.78;1.80;;;5.50;99.90;;;;;;5092625;28;20040;-75
2022/02/04 17:02:30;;;;;;;3.15;2.28;;;5.50;99.90;;;;;;5074064;28;20032;-75
2022/02/04 17:04:59;;;;;;;1.98;1.45;;;5.50;99.90;;;;;;5075001;28;20101;-73
2022/02/04 17:07:35;;;;;;;2.92;1.48;;;5.50;99.90;;;;;;5092694;28;20074;-73
2022/02/04 17:10:12;;;;;;;2.83;1.70;;;5.50;99.90;;;;;;5073401;28;20035;-76
2022/02/04 17:12:41;;;;;;;3.28;2.45;;;5.50;99.90;;;;;;5091887;28;20126;-73
2022/02/04 17:15:17;;;;;;;2.75;1.92;;;5.50;99.90;;;;;;5058451;28;20477;-73
2022/02/04 17:17:47;;;;;;;3.22;2.15;;;5.60;99.90;;;;;;5091051;28;20082;-73
2022/02/04 17:20:21;;;;;;;3.13;2.17;;;5.60;99.90;;;;;;5092435;28;20039;-73
2022/02/04 17:22:58;;;;;;;2.63;2.00;;;5.60;99.90;;;;;;5059857;28;20049;-73
2022/02/04 17:25:35;;;;;;;3.47;2.20;;;5.60;99.90;;;;;;5068677;28;20047;-75
2022/02/04 17:28:02;;;;;;;4.07;1.83;;;5.60;99.90;;;;;;5073954;28;20039;-72
2022/02/04 17:30:32;;;;;;;2.55;1.88;;;5.50;99.90;;;;;;5092055;28;20047;-73
2022/02/04 17:33:05;;;;;;;2.10;1.40;;;5.50;99.90;;;;;;5079580;28;20048;-73
2022/02/04 17:35:37;;;;;;;2.08;1.45;;;5.50;99.90;;;;;;5053604;28;20573;-73
2022/02/04 17:38:18;;;;;;;1.98;1.70;;;5.50;99.90;;;;;;5071877;28;20048;-73
2022/02/04 17:40:54;;;;;;;2.17;1.42;;;5.50;99.90;;;;;;5084208;28;20074;-73
2022/02/04 17:43:29;;;;;;;3.67;1.80;;;5.60;99.90;;;;;;5092786;28;20043;-71
2022/02/04 17:46:01;;;;;;;2.67;1.38;;;5.60;99.90;;;;;;5074572;28;20032;-74
2022/02/04 17:48:38;;;;;;;1.98;1.23;;;5.60;99.90;;;;;;5091741;28;20094;-75
2022/02/04 17:51:38;;;;;;;2.33;1.50;;;5.60;99.90;;;;;;5091980;28;20058;-73
2022/02/04 17:53:59;;;;;;;3.63;1.58;;;5.60;99.90;;;;;;5091275;28;20052;-75
2022/02/04 17:56:35;;;;;;;5.13;2.45;;;5.60;99.90;;;;;;5091029;28;20079;-77
2022/02/04 17:59:36;;;;;;;2.15;1.60;;;5.50;99.90;;;;;;5098741;28;20530;-76
2022/02/04 18:02:34;;;;;;;1.95;1.30;;;5.50;99.90;;;;;;5078121;28;20048;-73
2022/02/04 18:05:37;;;;;;;3.42;1.60;;;5.50;99.90;;;;;;5088121;28;20090;-76
2022/02/04 18:08:09;;;;;;;3.72;1.50;;;5.50;99.90;;;;;;5090202;28;20050;-73
2022/02/04 18:10:37;;;;;;;1.92;1.55;;;5.50;99.90;;;;;;5070515;28;20114;-74
2022/02/04 18:13:05;;;;;;;1.88;1.60;;;5.50;99.90;;;;;;5086685;28;20094;-73
2022/02/04 18:15:42;;;;;;;1.83;1.30;;;5.50;99.90;;;;;;5078784;28;20498;-73
2022/02/04 18:18:17;;;;;;;2.60;1.60;;;5.40;99.90;;;;;;5088781;28;20052;-74
2022/02/04 18:20:52;;;;;;;1.80;1.30;;;5.30;99.90;;;;;;5079847;28;20068;-73
2022/02/04 18:23:24;;;;;;;1.95;1.45;;;5.40;99.90;;;;;;5071354;28;20368;-73
2022/02/04 18:25:52;;;;;;;3.35;1.60;;;5.30;99.90;;;;;;5090920;28;20042;-73
2022/02/04 18:28:26;;;;;;;1.85;1.20;;;5.30;99.90;;;;;;5073820;28;20044;-73
2022/02/04 18:30:55;;;;;;;2.70;1.52;;;5.30;99.90;;;;;;5083511;28;20550;-73
2022/02/04 18:33:27;;;;;;;2.00;1.45;;;5.30;99.90;;;;;;5089337;28;20139;-74
2022/02/04 18:36:00;;;;;;;2.45;1.42;;;5.30;99.90;;;;;;5072973;28;20134;-73
2022/02/04 18:49:13;;;;;;;1.35;0.98;;;5.20;99.90;;;;;;5089852;28;19920;-73
2022/02/04 18:54:41;;;;;;;1.98;1.00;;;5.20;99.90;;;;;;5073344;28;20044;-73
2022/02/04 18:57:19;;;;;;;2.33;0.90;;;5.10;99.90;;;;;;5090832;28;20440;-73
2022/02/04 19:00:10;;;;;;;1.02;0.75;;;5.10;99.90;;;;;;5073729;28;20062;-73
2022/02/04 19:02:40;;;;;;;1.00;0.70;;;5.10;99.90;;;;;;5082309;28;20055;-73
2022/02/04 19:05:30;;;;;;;2.05;1.38;;;5.10;99.90;;;;;;5073251;28;20040;-73
2022/02/04 19:08:11;;;;;;;1.20;0.77;;;5.10;99.90;;;;;;5070834;28;20044;-73
2022/02/04 19:10:47;;;;;;;1.42;0.88;;;5.10;99.90;;;;;;5084818;28;20659;-73
2022/02/04 19:13:23;;;;;;;1.55;0.73;;;5.10;99.90;;;;;;5085995;28;20546;-73
2022/02/04 19:16:12;;;;;;;1.10;0.75;;;5.10;99.90;;;;;;5071793;28;20053;-74
2022/02/04 19:18:55;;;;;;;0.85;0.52;;;5.10;99.90;;;;;;5086306;28;20056;-73
2022/02/04 19:21:51;;;;;;;1.10;0.80;;;5.20;99.90;;;;;;5085237;28;20044;-74
2022/02/04 19:24:27;;;;;;;1.13;0.68;;;5.20;99.90;;;;;;5093303;28;20036;-73
2022/02/04 19:26:55;;;;;;;1.15;0.50;;;5.20;99.90;;;;;;5100418;28;20039;-73
2022/02/04 19:29:34;;;;;;;1.00;0.60;;;5.20;99.90;;;;;;5085042;28;20036;-74
2022/02/04 19:32:05;;;;;;;0.65;0.50;;;5.20;99.90;;;;;;5076896;28;20051;-73
2022/02/04 19:34:32;;;;;;;1.40;0.70;;;5.30;99.90;;;;;;5091940;28;20044;-73
2022/02/04 19:37:04;;;;;;;0.50;0.50;;;5.30;99.90;;;;;;5092232;28;20040;-74
2022/02/04 19:39:31;;;;;;;2.42;0.50;;;5.30;99.90;;;;;;5074653;28;20039;-73
2022/02/04 19:42:06;;;;;;;0.70;0.50;;;5.40;99.90;;;;;;5072989;28;20102;-74
2022/02/04 19:44:36;;;;;;;0.65;0.50;;;5.40;99.90;;;;;;5092528;28;20119;-73
2022/02/04 19:47:13;;;;;;;1.05;0.57;;;5.40;99.90;;;;;;5085371;28;20032;-73
2022/02/04 19:50:06;;;;;;;1.88;0.60;;;5.40;99.90;;;;;;5073313;28;20392;-73
2022/02/04 19:53:23;;;;;;;1.10;0.80;;;5.40;99.90;;;;;;5091362;28;20398;-73
2022/02/04 20:07:34;;;;;;;1.08;0.60;;;5.60;99.90;;;;;;5073981;28;20037;-73
2022/02/04 20:16:51;;;;;;;1.23;0.50;;;5.70;99.90;;;;;;5083388;28;20048;-74
2022/02/04 20:26:57;;;;;;;1.10;0.68;;;5.80;99.90;;;;;;5092723;28;20048;-74
2022/02/04 20:29:30;;;;;;;2.17;0.87;;;5.90;99.90;;;;;;5087869;28;20048;-74
2022/02/04 20:31:59;;;;;;;1.15;0.73;;;6.00;99.90;;;;;;5092686;28;20278;-73
2022/02/04 20:34:25;;;;;;;1.70;0.70;;;6.00;99.90;;;;;;5073323;28;20410;-73